sensor_id;sensor_type;location;lat;lon;timestamp;P1;durP1;ratioP1;P2;durP2;ratioP2
8312;SDS011;4194;43.408;24.626;2023-04-25T00:01:14;3.07;;;2.00;;
8312;SDS011;4194;43.408;24.626;2023-04-25T00:03:40;1.67;;;1.57;;
8312;SDS011;4194;43.408;24.626;2023-04-25T00:06:06;2.17;;;1.50;;
8312;SDS011;4194;43.408;24.626;2023-04-25T00:08:32;2.00;;;1.83;;
8312;SDS011;4194;43.408;24.626;2023-04-25T00:10:58;2.67;;;1.90;;
8312;SDS011;4194;43.408;24.626;2023-04-25T00:13:25;3.83;;;1.90;;
8312;SDS011;4194;43.408;24.626;2023-04-25T00:15:51;3.83;;;1.93;;
8312;SDS011;4194;43.408;24.626;2023-04-25T00:18:21;5.13;;;2.00;;
8312;SDS011;4194;43.408;24.626;2023-04-25T00:20:47;4.27;;;1.57;;
8312;SDS011;4194;43.408;24.626;2023-04-25T00:23:13;1.90;;;1.80;;
8312;SDS011;4194;43.408;24.626;2023-04-25T00:25:42;1.90;;;1.70;;
8312;SDS011;4194;43.408;24.626;2023-04-25T00:28:09;2.20;;;1.40;;
8312;SDS011;4194;43.408;24.626;2023-04-25T00:30:35;1.80;;;1.70;;
8312;SDS011;4194;43.408;24.626;2023-04-25T00:33:00;1.67;;;1.57;;
8312;SDS011;4194;43.408;24.626;2023-04-25T00:35:26;2.43;;;1.80;;
8312;SDS011;4194;43.408;24.626;2023-04-25T00:37:52;2.07;;;1.73;;
8312;SDS011;4194;43.408;24.626;2023-04-25T00:40:18;4.93;;;1.70;;
8312;SDS011;4194;43.408;24.626;2023-04-25T00:42:44;1.60;;;1.50;;
8312;SDS011;4194;43.408;24.626;2023-04-25T00:45:12;1.67;;;1.53;;
8312;SDS011;4194;43.408;24.626;2023-04-25T00:47:42;1.60;;;1.50;;
8312;SDS011;4194;43.408;24.626;2023-04-25T00:50:08;5.97;;;2.17;;
8312;SDS011;4194;43.408;24.626;2023-04-25T00:52:34;2.33;;;1.50;;
8312;SDS011;4194;43.408;24.626;2023-04-25T00:55:01;2.80;;;2.03;;
8312;SDS011;4194;43.408;24.626;2023-04-25T00:57:27;1.50;;;1.37;;
8312;SDS011;4194;43.408;24.626;2023-04-25T00:59:53;1.30;;;1.20;;
8312;SDS011;4194;43.408;24.626;2023-04-25T01:02:19;1.60;;;1.50;;
8312;SDS011;4194;43.408;24.626;2023-04-25T01:04:45;1.20;;;1.10;;
8312;SDS011;4194;43.408;24.626;2023-04-25T01:07:12;2.50;;;1.30;;
8312;SDS011;4194;43.408;24.626;2023-04-25T01:09:38;2.07;;;1.00;;
8312;SDS011;4194;43.408;24.626;2023-04-25T01:12:04;1.43;;;1.33;;
8312;SDS011;4194;43.408;24.626;2023-04-25T01:14:30;2.00;;;1.00;;
8312;SDS011;4194;43.408;24.626;2023-04-25T01:16:56;0.90;;;0.90;;
8312;SDS011;4194;43.408;24.626;2023-04-25T01:19:22;2.20;;;0.80;;
8312;SDS011;4194;43.408;24.626;2023-04-25T01:21:48;1.30;;;1.20;;
8312;SDS011;4194;43.408;24.626;2023-04-25T01:24:15;1.13;;;1.10;;
8312;SDS011;4194;43.408;24.626;2023-04-25T01:26:41;1.37;;;1.27;;
8312;SDS011;4194;43.408;24.626;2023-04-25T01:29:15;1.07;;;0.90;;
8312;SDS011;4194;43.408;24.626;2023-04-25T01:31:45;1.80;;;1.30;;
8312;SDS011;4194;43.408;24.626;2023-04-25T01:34:11;1.17;;;1.10;;
8312;SDS011;4194;43.408;24.626;2023-04-25T01:36:37;1.33;;;1.23;;
8312;SDS011;4194;43.408;24.626;2023-04-25T01:39:03;3.20;;;1.37;;
8312;SDS011;4194;43.408;24.626;2023-04-25T01:41:29;2.00;;;1.23;;
8312;SDS011;4194;43.408;24.626;2023-04-25T01:43:56;1.40;;;1.30;;
8312;SDS011;4194;43.408;24.626;2023-04-25T01:46:21;3.20;;;1.30;;
8312;SDS011;4194;43.408;24.626;2023-04-25T01:48:47;2.77;;;1.67;;
8312;SDS011;4194;43.408;24.626;2023-04-25T01:51:13;1.63;;;1.53;;
8312;SDS011;4194;43.408;24.626;2023-04-25T01:53:40;5.60;;;1.60;;
8312;SDS011;4194;43.408;24.626;2023-04-25T01:56:06;1.40;;;1.30;;
8312;SDS011;4194;43.408;24.626;2023-04-25T01:58:32;1.67;;;1.57;;
8312;SDS011;4194;43.408;24.626;2023-04-25T02:00:58;1.63;;;1.53;;
8312;SDS011;4194;43.408;24.626;2023-04-25T02:03:23;2.10;;;1.90;;
8312;SDS011;4194;43.408;24.626;2023-04-25T02:05:49;1.73;;;1.63;;
8312;SDS011;4194;43.408;24.626;2023-04-25T02:08:16;1.50;;;1.40;;
8312;SDS011;4194;43.408;24.626;2023-04-25T02:10:42;1.80;;;1.40;;
8312;SDS011;4194;43.408;24.626;2023-04-25T02:13:08;2.13;;;1.53;;
8312;SDS011;4194;43.408;24.626;2023-04-25T02:15:34;3.00;;;1.80;;
8312;SDS011;4194;43.408;24.626;2023-04-25T02:17:59;2.00;;;1.63;;
8312;SDS011;4194;43.408;24.626;2023-04-25T02:20:25;2.03;;;1.83;;
8312;SDS011;4194;43.408;24.626;2023-04-25T02:22:52;2.07;;;1.67;;
8312;SDS011;4194;43.408;24.626;2023-04-25T02:25:18;1.60;;;1.50;;
8312;SDS011;4194;43.408;24.626;2023-04-25T02:27:45;1.60;;;1.50;;
8312;SDS011;4194;43.408;24.626;2023-04-25T02:30:11;1.57;;;1.47;;
8312;SDS011;4194;43.408;24.626;2023-04-25T02:32:38;1.70;;;1.60;;
8312;SDS011;4194;43.408;24.626;2023-04-25T02:35:04;2.00;;;1.60;;
8312;SDS011;4194;43.408;24.626;2023-04-25T02:37:31;2.03;;;1.83;;
8312;SDS011;4194;43.408;24.626;2023-04-25T02:39:57;2.13;;;1.80;;
8312;SDS011;4194;43.408;24.626;2023-04-25T02:42:23;2.20;;;1.60;;
8312;SDS011;4194;43.408;24.626;2023-04-25T02:44:49;1.80;;;1.70;;
8312;SDS011;4194;43.408;24.626;2023-04-25T02:47:15;2.00;;;1.87;;
8312;SDS011;4194;43.408;24.626;2023-04-25T02:49:40;4.13;;;2.00;;
8312;SDS011;4194;43.408;24.626;2023-04-25T02:52:06;2.73;;;2.00;;
8312;SDS011;4194;43.408;24.626;2023-04-25T02:54:32;2.83;;;2.30;;
8312;SDS011;4194;43.408;24.626;2023-04-25T02:56:58;2.17;;;2.00;;
8312;SDS011;4194;43.408;24.626;2023-04-25T02:59:23;2.27;;;2.00;;
8312;SDS011;4194;43.408;24.626;2023-04-25T03:01:49;3.43;;;2.43;;
8312;SDS011;4194;43.408;24.626;2023-04-25T03:04:15;3.87;;;2.17;;
8312;SDS011;4194;43.408;24.626;2023-04-25T03:06:40;2.30;;;2.10;;
8312;SDS011;4194;43.408;24.626;2023-04-25T03:09:06;2.00;;;1.90;;
8312;SDS011;4194;43.408;24.626;2023-04-25T03:11:32;2.33;;;2.17;;
8312;SDS011;4194;43.408;24.626;2023-04-25T03:13:58;2.50;;;2.30;;
8312;SDS011;4194;43.408;24.626;2023-04-25T03:16:23;2.30;;;2.10;;
8312;SDS011;4194;43.408;24.626;2023-04-25T03:18:49;4.23;;;2.33;;
8312;SDS011;4194;43.408;24.626;2023-04-25T03:21:15;2.03;;;1.87;;
8312;SDS011;4194;43.408;24.626;2023-04-25T03:23:41;2.20;;;2.00;;
8312;SDS011;4194;43.408;24.626;2023-04-25T03:26:07;2.23;;;1.90;;
8312;SDS011;4194;43.408;24.626;2023-04-25T03:28:33;3.03;;;2.13;;
8312;SDS011;4194;43.408;24.626;2023-04-25T03:30:58;4.37;;;2.30;;
8312;SDS011;4194;43.408;24.626;2023-04-25T03:33:24;2.27;;;2.07;;
8312;SDS011;4194;43.408;24.626;2023-04-25T03:35:50;2.73;;;2.10;;
8312;SDS011;4194;43.408;24.626;2023-04-25T03:38:16;3.40;;;2.37;;
8312;SDS011;4194;43.408;24.626;2023-04-25T03:40:42;3.03;;;2.40;;
8312;SDS011;4194;43.408;24.626;2023-04-25T03:43:07;2.87;;;2.23;;
8312;SDS011;4194;43.408;24.626;2023-04-25T03:45:33;2.23;;;2.03;;
8312;SDS011;4194;43.408;24.626;2023-04-25T03:47:59;3.57;;;2.20;;
8312;SDS011;4194;43.408;24.626;2023-04-25T03:50:25;4.30;;;2.30;;
8312;SDS011;4194;43.408;24.626;2023-04-25T03:52:50;3.03;;;2.30;;
8312;SDS011;4194;43.408;24.626;2023-04-25T03:55:16;2.23;;;2.03;;
8312;SDS011;4194;43.408;24.626;2023-04-25T03:57:42;2.50;;;2.30;;
8312;SDS011;4194;43.408;24.626;2023-04-25T04:00:07;2.40;;;2.20;;
8312;SDS011;4194;43.408;24.626;2023-04-25T04:02:34;2.20;;;2.00;;
8312;SDS011;4194;43.408;24.626;2023-04-25T04:05:01;2.13;;;2.03;;
8312;SDS011;4194;43.408;24.626;2023-04-25T04:07:28;3.60;;;2.10;;
8312;SDS011;4194;43.408;24.626;2023-04-25T04:09:54;2.27;;;2.07;;
8312;SDS011;4194;43.408;24.626;2023-04-25T04:12:20;2.93;;;2.50;;
8312;SDS011;4194;43.408;24.626;2023-04-25T04:14:45;2.43;;;2.23;;
8312;SDS011;4194;43.408;24.626;2023-04-25T04:17:11;3.57;;;2.30;;
8312;SDS011;4194;43.408;24.626;2023-04-25T04:19:37;2.73;;;2.27;;
8312;SDS011;4194;43.408;24.626;2023-04-25T04:22:02;3.33;;;2.57;;
8312;SDS011;4194;43.408;24.626;2023-04-25T04:24:28;3.53;;;2.70;;
8312;SDS011;4194;43.408;24.626;2023-04-25T04:26:54;3.37;;;2.67;;
8312;SDS011;4194;43.408;24.626;2023-04-25T04:29:20;4.37;;;2.80;;
8312;SDS011;4194;43.408;24.626;2023-04-25T04:31:49;2.70;;;2.50;;
8312;SDS011;4194;43.408;24.626;2023-04-25T04:34:16;2.87;;;2.57;;
8312;SDS011;4194;43.408;24.626;2023-04-25T04:36:43;4.17;;;3.00;;
8312;SDS011;4194;43.408;24.626;2023-04-25T04:39:11;4.63;;;3.07;;
8312;SDS011;4194;43.408;24.626;2023-04-25T04:41:37;4.60;;;3.40;;
8312;SDS011;4194;43.408;24.626;2023-04-25T04:44:03;5.37;;;3.00;;
8312;SDS011;4194;43.408;24.626;2023-04-25T04:46:29;3.83;;;3.20;;
8312;SDS011;4194;43.408;24.626;2023-04-25T04:49:02;7.90;;;3.07;;
8312;SDS011;4194;43.408;24.626;2023-04-25T04:51:31;4.80;;;3.17;;
8312;SDS011;4194;43.408;24.626;2023-04-25T04:53:57;3.10;;;2.77;;
8312;SDS011;4194;43.408;24.626;2023-04-25T04:56:27;3.87;;;2.77;;
8312;SDS011;4194;43.408;24.626;2023-04-25T04:58:56;3.30;;;2.83;;
8312;SDS011;4194;43.408;24.626;2023-04-25T05:01:22;3.53;;;2.90;;
8312;SDS011;4194;43.408;24.626;2023-04-25T05:03:48;5.13;;;2.87;;
8312;SDS011;4194;43.408;24.626;2023-04-25T05:06:14;3.07;;;2.73;;
8312;SDS011;4194;43.408;24.626;2023-04-25T05:08:40;4.20;;;3.30;;
8312;SDS011;4194;43.408;24.626;2023-04-25T05:11:06;6.60;;;3.17;;
8312;SDS011;4194;43.408;24.626;2023-04-25T05:13:32;6.03;;;3.60;;
8312;SDS011;4194;43.408;24.626;2023-04-25T05:15:57;5.97;;;3.10;;
8312;SDS011;4194;43.408;24.626;2023-04-25T05:18:23;6.60;;;3.20;;
8312;SDS011;4194;43.408;24.626;2023-04-25T05:20:48;6.77;;;2.70;;
8312;SDS011;4194;43.408;24.626;2023-04-25T05:23:14;5.13;;;2.70;;
8312;SDS011;4194;43.408;24.626;2023-04-25T05:25:41;6.90;;;2.73;;
8312;SDS011;4194;43.408;24.626;2023-04-25T05:28:07;5.33;;;3.13;;
8312;SDS011;4194;43.408;24.626;2023-04-25T05:30:34;9.37;;;3.33;;
8312;SDS011;4194;43.408;24.626;2023-04-25T05:32:59;6.40;;;3.77;;
8312;SDS011;4194;43.408;24.626;2023-04-25T05:35:25;14.37;;;3.50;;
8312;SDS011;4194;43.408;24.626;2023-04-25T05:37:51;8.57;;;4.03;;
8312;SDS011;4194;43.408;24.626;2023-04-25T05:40:17;6.10;;;3.80;;
8312;SDS011;4194;43.408;24.626;2023-04-25T05:42:42;11.80;;;4.87;;
8312;SDS011;4194;43.408;24.626;2023-04-25T05:45:08;12.13;;;4.40;;
8312;SDS011;4194;43.408;24.626;2023-04-25T05:47:34;16.27;;;4.60;;
8312;SDS011;4194;43.408;24.626;2023-04-25T05:50:00;11.77;;;4.53;;
8312;SDS011;4194;43.408;24.626;2023-04-25T05:52:28;8.13;;;4.23;;
8312;SDS011;4194;43.408;24.626;2023-04-25T05:54:54;6.47;;;3.77;;
8312;SDS011;4194;43.408;24.626;2023-04-25T05:57:23;5.17;;;3.07;;
8312;SDS011;4194;43.408;24.626;2023-04-25T05:59:50;5.67;;;3.07;;
8312;SDS011;4194;43.408;24.626;2023-04-25T06:02:16;6.00;;;3.57;;
8312;SDS011;4194;43.408;24.626;2023-04-25T06:04:43;10.23;;;3.00;;
8312;SDS011;4194;43.408;24.626;2023-04-25T06:07:08;7.13;;;3.23;;
8312;SDS011;4194;43.408;24.626;2023-04-25T06:09:34;5.27;;;2.77;;
8312;SDS011;4194;43.408;24.626;2023-04-25T06:12:00;7.17;;;3.10;;
8312;SDS011;4194;43.408;24.626;2023-04-25T06:14:26;10.03;;;2.67;;
8312;SDS011;4194;43.408;24.626;2023-04-25T06:16:52;8.40;;;2.10;;
8312;SDS011;4194;43.408;24.626;2023-04-25T06:19:18;2.73;;;2.43;;
8312;SDS011;4194;43.408;24.626;2023-04-25T06:21:44;5.53;;;4.43;;
8312;SDS011;4194;43.408;24.626;2023-04-25T06:24:09;6.30;;;4.77;;
8312;SDS011;4194;43.408;24.626;2023-04-25T06:26:35;7.87;;;4.40;;
8312;SDS011;4194;43.408;24.626;2023-04-25T06:29:01;6.13;;;3.87;;
8312;SDS011;4194;43.408;24.626;2023-04-25T06:31:27;7.13;;;3.37;;
8312;SDS011;4194;43.408;24.626;2023-04-25T06:33:53;5.30;;;2.57;;
8312;SDS011;4194;43.408;24.626;2023-04-25T06:36:20;2.80;;;1.40;;
8312;SDS011;4194;43.408;24.626;2023-04-25T06:38:50;3.67;;;1.63;;
8312;SDS011;4194;43.408;24.626;2023-04-25T06:41:17;2.57;;;2.30;;
8312;SDS011;4194;43.408;24.626;2023-04-25T06:43:43;6.47;;;3.90;;
8312;SDS011;4194;43.408;24.626;2023-04-25T06:46:09;4.27;;;2.80;;
8312;SDS011;4194;43.408;24.626;2023-04-25T06:48:35;2.47;;;1.83;;
8312;SDS011;4194;43.408;24.626;2023-04-25T06:51:00;2.43;;;1.53;;
8312;SDS011;4194;43.408;24.626;2023-04-25T06:53:26;3.57;;;1.90;;
8312;SDS011;4194;43.408;24.626;2023-04-25T06:55:52;4.23;;;2.40;;
8312;SDS011;4194;43.408;24.626;2023-04-25T06:58:18;2.30;;;1.70;;
8312;SDS011;4194;43.408;24.626;2023-04-25T07:00:43;5.97;;;1.60;;
8312;SDS011;4194;43.408;24.626;2023-04-25T07:03:09;5.93;;;2.07;;
8312;SDS011;4194;43.408;24.626;2023-04-25T07:05:35;3.00;;;1.60;;
8312;SDS011;4194;43.408;24.626;2023-04-25T07:08:01;3.73;;;2.23;;
8312;SDS011;4194;43.408;24.626;2023-04-25T07:10:27;1.73;;;1.63;;
8312;SDS011;4194;43.408;24.626;2023-04-25T07:12:53;2.30;;;1.37;;
8312;SDS011;4194;43.408;24.626;2023-04-25T07:15:19;2.43;;;1.60;;
8312;SDS011;4194;43.408;24.626;2023-04-25T07:17:44;2.03;;;1.47;;
8312;SDS011;4194;43.408;24.626;2023-04-25T07:20:10;3.60;;;1.50;;
8312;SDS011;4194;43.408;24.626;2023-04-25T07:22:36;3.47;;;1.60;;
8312;SDS011;4194;43.408;24.626;2023-04-25T07:25:02;6.77;;;2.03;;
8312;SDS011;4194;43.408;24.626;2023-04-25T07:27:29;7.17;;;1.90;;
8312;SDS011;4194;43.408;24.626;2023-04-25T07:29:55;6.33;;;1.80;;
8312;SDS011;4194;43.408;24.626;2023-04-25T07:32:21;3.93;;;1.70;;
8312;SDS011;4194;43.408;24.626;2023-04-25T07:34:46;1.57;;;1.30;;
8312;SDS011;4194;43.408;24.626;2023-04-25T07:37:13;1.80;;;1.70;;
8312;SDS011;4194;43.408;24.626;2023-04-25T07:39:40;1.97;;;1.77;;
8312;SDS011;4194;43.408;24.626;2023-04-25T07:42:06;2.03;;;1.70;;
8312;SDS011;4194;43.408;24.626;2023-04-25T07:44:33;2.93;;;1.93;;
8312;SDS011;4194;43.408;24.626;2023-04-25T07:47:06;5.57;;;1.53;;
8312;SDS011;4194;43.408;24.626;2023-04-25T07:49:36;2.10;;;1.90;;
8312;SDS011;4194;43.408;24.626;2023-04-25T07:52:03;2.50;;;1.33;;
8312;SDS011;4194;43.408;24.626;2023-04-25T07:54:30;3.77;;;1.40;;
8312;SDS011;4194;43.408;24.626;2023-04-25T07:56:56;1.40;;;1.30;;
8312;SDS011;4194;43.408;24.626;2023-04-25T07:59:22;2.13;;;1.70;;
8312;SDS011;4194;43.408;24.626;2023-04-25T08:01:48;1.80;;;1.37;;
8312;SDS011;4194;43.408;24.626;2023-04-25T08:04:14;2.13;;;1.57;;
8312;SDS011;4194;43.408;24.626;2023-04-25T08:06:39;2.73;;;1.60;;
8312;SDS011;4194;43.408;24.626;2023-04-25T08:09:05;3.73;;;1.70;;
8312;SDS011;4194;43.408;24.626;2023-04-25T08:11:32;2.53;;;1.57;;
8312;SDS011;4194;43.408;24.626;2023-04-25T08:13:57;2.80;;;1.43;;
8312;SDS011;4194;43.408;24.626;2023-04-25T08:16:23;1.57;;;1.47;;
8312;SDS011;4194;43.408;24.626;2023-04-25T08:18:50;3.03;;;1.60;;
8312;SDS011;4194;43.408;24.626;2023-04-25T08:21:15;3.57;;;2.07;;
8312;SDS011;4194;43.408;24.626;2023-04-25T08:23:41;2.90;;;1.57;;
8312;SDS011;4194;43.408;24.626;2023-04-25T08:26:07;4.43;;;1.60;;
8312;SDS011;4194;43.408;24.626;2023-04-25T08:28:33;2.13;;;1.50;;
8312;SDS011;4194;43.408;24.626;2023-04-25T08:30:58;2.80;;;1.40;;
8312;SDS011;4194;43.408;24.626;2023-04-25T08:33:24;2.47;;;1.30;;
8312;SDS011;4194;43.408;24.626;2023-04-25T08:35:50;3.23;;;1.67;;
8312;SDS011;4194;43.408;24.626;2023-04-25T08:38:17;1.50;;;1.40;;
8312;SDS011;4194;43.408;24.626;2023-04-25T08:40:43;3.57;;;1.50;;
8312;SDS011;4194;43.408;24.626;2023-04-25T08:43:09;3.33;;;1.57;;
8312;SDS011;4194;43.408;24.626;2023-04-25T08:45:41;3.03;;;1.80;;
8312;SDS011;4194;43.408;24.626;2023-04-25T08:48:10;1.57;;;1.40;;
8312;SDS011;4194;43.408;24.626;2023-04-25T08:51:10;3.47;;;2.03;;
8312;SDS011;4194;43.408;24.626;2023-04-25T08:53:32;2.67;;;1.77;;
8312;SDS011;4194;43.408;24.626;2023-04-25T08:55:59;2.83;;;1.77;;
8312;SDS011;4194;43.408;24.626;2023-04-25T08:58:27;3.17;;;1.70;;
8312;SDS011;4194;43.408;24.626;2023-04-25T09:00:53;1.83;;;1.50;;
8312;SDS011;4194;43.408;24.626;2023-04-25T09:03:19;3.30;;;1.50;;
8312;SDS011;4194;43.408;24.626;2023-04-25T09:05:45;2.60;;;2.07;;
8312;SDS011;4194;43.408;24.626;2023-04-25T09:08:11;2.93;;;1.80;;
8312;SDS011;4194;43.408;24.626;2023-04-25T09:10:37;2.20;;;1.40;;
8312;SDS011;4194;43.408;24.626;2023-04-25T09:13:04;1.23;;;1.13;;
8312;SDS011;4194;43.408;24.626;2023-04-25T09:15:49;1.67;;;1.57;;
8312;SDS011;4194;43.408;24.626;2023-04-25T09:20:50;2.20;;;1.30;;
8312;SDS011;4194;43.408;24.626;2023-04-25T09:23:18;2.73;;;1.47;;
8312;SDS011;4194;43.408;24.626;2023-04-25T09:25:47;1.10;;;1.10;;
8312;SDS011;4194;43.408;24.626;2023-04-25T09:28:13;3.33;;;1.90;;
8312;SDS011;4194;43.408;24.626;2023-04-25T09:30:39;2.07;;;1.50;;
8312;SDS011;4194;43.408;24.626;2023-04-25T09:33:05;3.20;;;1.43;;
8312;SDS011;4194;43.408;24.626;2023-04-25T09:35:39;2.27;;;1.40;;
8312;SDS011;4194;43.408;24.626;2023-04-25T09:38:11;1.47;;;1.37;;
8312;SDS011;4194;43.408;24.626;2023-04-25T09:40:47;1.53;;;1.43;;
8312;SDS011;4194;43.408;24.626;2023-04-25T09:43:20;1.63;;;1.53;;
8312;SDS011;4194;43.408;24.626;2023-04-25T09:45:47;2.37;;;1.37;;
8312;SDS011;4194;43.408;24.626;2023-04-25T09:48:20;3.60;;;1.70;;
8312;SDS011;4194;43.408;24.626;2023-04-25T09:53:33;2.13;;;1.60;;
8312;SDS011;4194;43.408;24.626;2023-04-25T09:56:00;1.77;;;1.50;;
8312;SDS011;4194;43.408;24.626;2023-04-25T09:58:30;1.40;;;1.30;;
8312;SDS011;4194;43.408;24.626;2023-04-25T10:00:58;2.00;;;1.33;;
8312;SDS011;4194;43.408;24.626;2023-04-25T10:03:27;1.93;;;1.70;;
8312;SDS011;4194;43.408;24.626;2023-04-25T10:06:02;4.13;;;1.60;;
8312;SDS011;4194;43.408;24.626;2023-04-25T10:08:32;2.93;;;1.47;;
8312;SDS011;4194;43.408;24.626;2023-04-25T10:11:00;2.27;;;1.47;;
8312;SDS011;4194;43.408;24.626;2023-04-25T10:13:28;2.83;;;1.73;;
8312;SDS011;4194;43.408;24.626;2023-04-25T10:15:56;1.90;;;1.43;;
8312;SDS011;4194;43.408;24.626;2023-04-25T10:18:29;3.20;;;1.40;;
8312;SDS011;4194;43.408;24.626;2023-04-25T10:20:56;1.80;;;1.47;;
8312;SDS011;4194;43.408;24.626;2023-04-25T10:23:29;2.07;;;1.40;;
8312;SDS011;4194;43.408;24.626;2023-04-25T10:25:56;3.57;;;1.90;;
8312;SDS011;4194;43.408;24.626;2023-04-25T10:28:22;1.50;;;1.40;;
8312;SDS011;4194;43.408;24.626;2023-04-25T10:31:01;3.60;;;1.63;;
8312;SDS011;4194;43.408;24.626;2023-04-25T10:33:34;2.97;;;1.60;;
8312;SDS011;4194;43.408;24.626;2023-04-25T10:36:14;4.43;;;1.57;;
8312;SDS011;4194;43.408;24.626;2023-04-25T10:38:43;2.63;;;2.27;;
8312;SDS011;4194;43.408;24.626;2023-04-25T10:41:10;2.23;;;1.47;;
8312;SDS011;4194;43.408;24.626;2023-04-25T10:43:41;1.50;;;1.20;;
8312;SDS011;4194;43.408;24.626;2023-04-25T10:46:18;2.27;;;1.37;;
8312;SDS011;4194;43.408;24.626;2023-04-25T10:53:59;1.30;;;1.20;;
8312;SDS011;4194;43.408;24.626;2023-04-25T10:56:27;1.67;;;1.40;;
8312;SDS011;4194;43.408;24.626;2023-04-25T11:01:39;1.40;;;1.30;;
8312;SDS011;4194;43.408;24.626;2023-04-25T11:04:06;2.80;;;1.33;;
8312;SDS011;4194;43.408;24.626;2023-04-25T11:06:46;1.10;;;1.00;;
8312;SDS011;4194;43.408;24.626;2023-04-25T11:09:36;3.93;;;1.17;;
8312;SDS011;4194;43.408;24.626;2023-04-25T11:12:06;3.83;;;1.30;;
8312;SDS011;4194;43.408;24.626;2023-04-25T11:14:33;1.03;;;1.00;;
8312;SDS011;4194;43.408;24.626;2023-04-25T11:16:59;2.07;;;1.20;;
8312;SDS011;4194;43.408;24.626;2023-04-25T11:19:26;2.97;;;1.53;;
8312;SDS011;4194;43.408;24.626;2023-04-25T11:21:56;1.73;;;1.20;;
8312;SDS011;4194;43.408;24.626;2023-04-25T11:24:29;5.87;;;1.40;;
8312;SDS011;4194;43.408;24.626;2023-04-25T11:26:57;1.60;;;1.20;;
8312;SDS011;4194;43.408;24.626;2023-04-25T11:29:27;1.43;;;1.20;;
8312;SDS011;4194;43.408;24.626;2023-04-25T11:31:54;1.63;;;1.37;;
8312;SDS011;4194;43.408;24.626;2023-04-25T11:34:24;1.37;;;1.10;;
8312;SDS011;4194;43.408;24.626;2023-04-25T11:36:50;1.30;;;1.20;;
8312;SDS011;4194;43.408;24.626;2023-04-25T11:39:20;0.80;;;0.80;;
8312;SDS011;4194;43.408;24.626;2023-04-25T11:41:46;1.33;;;0.90;;
8312;SDS011;4194;43.408;24.626;2023-04-25T11:44:12;2.27;;;1.03;;
8312;SDS011;4194;43.408;24.626;2023-04-25T11:46:40;1.63;;;1.00;;
8312;SDS011;4194;43.408;24.626;2023-04-25T11:49:07;0.83;;;0.83;;
8312;SDS011;4194;43.408;24.626;2023-04-25T11:51:40;1.57;;;0.80;;
8312;SDS011;4194;43.408;24.626;2023-04-25T11:54:06;1.53;;;0.90;;
8312;SDS011;4194;43.408;24.626;2023-04-25T11:56:32;1.63;;;0.93;;
8312;SDS011;4194;43.408;24.626;2023-04-25T11:58:59;2.47;;;0.90;;
8312;SDS011;4194;43.408;24.626;2023-04-25T12:01:27;0.83;;;0.77;;
8312;SDS011;4194;43.408;24.626;2023-04-25T12:03:55;0.80;;;0.80;;
8312;SDS011;4194;43.408;24.626;2023-04-25T12:06:21;1.10;;;0.97;;
8312;SDS011;4194;43.408;24.626;2023-04-25T12:09:04;1.20;;;1.00;;
8312;SDS011;4194;43.408;24.626;2023-04-25T12:11:32;2.40;;;1.13;;
8312;SDS011;4194;43.408;24.626;2023-04-25T12:14:04;1.97;;;1.10;;
8312;SDS011;4194;43.408;24.626;2023-04-25T12:16:39;2.20;;;0.93;;
8312;SDS011;4194;43.408;24.626;2023-04-25T12:19:07;1.20;;;1.10;;
8312;SDS011;4194;43.408;24.626;2023-04-25T12:21:33;2.80;;;1.00;;
8312;SDS011;4194;43.408;24.626;2023-04-25T12:24:12;1.37;;;1.03;;
8312;SDS011;4194;43.408;24.626;2023-04-25T12:26:49;1.10;;;1.10;;
8312;SDS011;4194;43.408;24.626;2023-04-25T12:29:22;1.50;;;1.00;;
8312;SDS011;4194;43.408;24.626;2023-04-25T12:31:49;3.30;;;0.93;;
8312;SDS011;4194;43.408;24.626;2023-04-25T12:34:16;3.03;;;1.20;;
8312;SDS011;4194;43.408;24.626;2023-04-25T12:36:42;2.23;;;1.00;;
8312;SDS011;4194;43.408;24.626;2023-04-25T12:39:08;1.33;;;0.93;;
8312;SDS011;4194;43.408;24.626;2023-04-25T12:41:40;1.13;;;1.03;;
8312;SDS011;4194;43.408;24.626;2023-04-25T12:44:06;4.70;;;0.80;;
8312;SDS011;4194;43.408;24.626;2023-04-25T12:46:31;8.23;;;1.53;;
8312;SDS011;4194;43.408;24.626;2023-04-25T12:48:57;3.27;;;0.73;;
8312;SDS011;4194;43.408;24.626;2023-04-25T12:51:23;8.30;;;1.20;;
8312;SDS011;4194;43.408;24.626;2023-04-25T12:53:50;4.60;;;1.53;;
8312;SDS011;4194;43.408;24.626;2023-04-25T12:56:16;3.83;;;1.77;;
8312;SDS011;4194;43.408;24.626;2023-04-25T12:58:42;3.33;;;1.90;;
8312;SDS011;4194;43.408;24.626;2023-04-25T13:01:09;3.47;;;2.73;;
8312;SDS011;4194;43.408;24.626;2023-04-25T13:03:35;4.43;;;2.60;;
8312;SDS011;4194;43.408;24.626;2023-04-25T13:06:00;6.60;;;2.53;;
8312;SDS011;4194;43.408;24.626;2023-04-25T13:08:26;4.27;;;2.53;;
8312;SDS011;4194;43.408;24.626;2023-04-25T13:10:52;3.30;;;2.23;;
8312;SDS011;4194;43.408;24.626;2023-04-25T13:13:17;3.93;;;2.97;;
8312;SDS011;4194;43.408;24.626;2023-04-25T13:15:43;3.03;;;2.70;;
8312;SDS011;4194;43.408;24.626;2023-04-25T13:18:09;2.80;;;2.07;;
8312;SDS011;4194;43.408;24.626;2023-04-25T13:20:34;4.00;;;2.30;;
8312;SDS011;4194;43.408;24.626;2023-04-25T13:23:00;4.40;;;2.80;;
8312;SDS011;4194;43.408;24.626;2023-04-25T13:25:26;4.83;;;2.30;;
8312;SDS011;4194;43.408;24.626;2023-04-25T13:27:51;3.90;;;2.03;;
8312;SDS011;4194;43.408;24.626;2023-04-25T13:30:17;4.40;;;2.40;;
8312;SDS011;4194;43.408;24.626;2023-04-25T13:32:43;5.30;;;2.90;;
8312;SDS011;4194;43.408;24.626;2023-04-25T13:35:09;5.83;;;2.83;;
8312;SDS011;4194;43.408;24.626;2023-04-25T13:37:37;3.63;;;2.37;;
8312;SDS011;4194;43.408;24.626;2023-04-25T13:40:04;2.40;;;2.20;;
8312;SDS011;4194;43.408;24.626;2023-04-25T13:42:35;9.20;;;2.67;;
8312;SDS011;4194;43.408;24.626;2023-04-25T13:45:01;4.73;;;2.60;;
8312;SDS011;4194;43.408;24.626;2023-04-25T13:47:28;6.47;;;2.23;;
8312;SDS011;4194;43.408;24.626;2023-04-25T13:49:55;3.87;;;2.30;;
8312;SDS011;4194;43.408;24.626;2023-04-25T13:52:20;7.47;;;2.80;;
8312;SDS011;4194;43.408;24.626;2023-04-25T13:54:46;4.63;;;2.50;;
8312;SDS011;4194;43.408;24.626;2023-04-25T13:57:12;6.37;;;2.67;;
8312;SDS011;4194;43.408;24.626;2023-04-25T13:59:38;3.63;;;2.67;;
8312;SDS011;4194;43.408;24.626;2023-04-25T14:02:04;5.33;;;2.87;;
8312;SDS011;4194;43.408;24.626;2023-04-25T14:04:30;4.80;;;2.13;;
8312;SDS011;4194;43.408;24.626;2023-04-25T14:06:55;3.10;;;1.90;;
8312;SDS011;4194;43.408;24.626;2023-04-25T14:09:21;4.20;;;2.30;;
8312;SDS011;4194;43.408;24.626;2023-04-25T14:11:51;3.73;;;1.93;;
8312;SDS011;4194;43.408;24.626;2023-04-25T14:14:17;4.17;;;1.77;;
8312;SDS011;4194;43.408;24.626;2023-04-25T14:16:43;3.50;;;1.70;;
8312;SDS011;4194;43.408;24.626;2023-04-25T14:19:09;3.37;;;1.63;;
8312;SDS011;4194;43.408;24.626;2023-04-25T14:21:35;3.20;;;1.60;;
8312;SDS011;4194;43.408;24.626;2023-04-25T14:24:01;4.03;;;2.03;;
8312;SDS011;4194;43.408;24.626;2023-04-25T14:26:26;3.27;;;1.40;;
8312;SDS011;4194;43.408;24.626;2023-04-25T14:28:52;2.00;;;1.20;;
8312;SDS011;4194;43.408;24.626;2023-04-25T14:31:18;2.43;;;1.50;;
8312;SDS011;4194;43.408;24.626;2023-04-25T14:33:44;0.90;;;0.90;;
8312;SDS011;4194;43.408;24.626;2023-04-25T14:36:10;1.10;;;0.87;;
8312;SDS011;4194;43.408;24.626;2023-04-25T14:38:36;1.93;;;1.00;;
8312;SDS011;4194;43.408;24.626;2023-04-25T14:41:02;2.83;;;1.13;;
8312;SDS011;4194;43.408;24.626;2023-04-25T14:43:28;2.43;;;1.50;;
8312;SDS011;4194;43.408;24.626;2023-04-25T14:45:53;1.27;;;1.07;;
8312;SDS011;4194;43.408;24.626;2023-04-25T14:48:19;2.63;;;0.90;;
8312;SDS011;4194;43.408;24.626;2023-04-25T14:50:45;0.97;;;0.80;;
8312;SDS011;4194;43.408;24.626;2023-04-25T14:53:11;1.30;;;1.10;;
8312;SDS011;4194;43.408;24.626;2023-04-25T14:55:38;1.20;;;0.90;;
8312;SDS011;4194;43.408;24.626;2023-04-25T14:58:03;2.30;;;1.37;;
8312;SDS011;4194;43.408;24.626;2023-04-25T15:00:29;1.10;;;0.97;;
8312;SDS011;4194;43.408;24.626;2023-04-25T15:02:56;1.50;;;0.80;;
8312;SDS011;4194;43.408;24.626;2023-04-25T15:05:23;1.13;;;0.90;;
8312;SDS011;4194;43.408;24.626;2023-04-25T15:07:48;1.50;;;0.90;;
8312;SDS011;4194;43.408;24.626;2023-04-25T15:10:14;1.90;;;0.83;;
8312;SDS011;4194;43.408;24.626;2023-04-25T15:12:44;3.70;;;1.30;;